sensor_id;sensor_type;location;lat;lon;timestamp;P1;durP1;ratioP1;P2;durP2;ratioP2
30635;SDS011;17400;52.392;9.750;2022-10-04T00:01:02;5.70;;;1.60;;
30635;SDS011;17400;52.392;9.750;2022-10-04T00:03:35;3.38;;;1.77;;
30635;SDS011;17400;52.392;9.750;2022-10-04T00:06:12;5.25;;;2.00;;
30635;SDS011;17400;52.392;9.750;2022-10-04T00:08:44;2.42;;;1.42;;
30635;SDS011;17400;52.392;9.750;2022-10-04T00:11:17;3.70;;;1.55;;
30635;SDS011;17400;52.392;9.750;2022-10-04T00:14:08;3.90;;;1.60;;
30635;SDS011;17400;52.392;9.750;2022-10-04T00:16:42;1.92;;;1.20;;
30635;SDS011;17400;52.392;9.750;2022-10-04T00:19:21;5.25;;;1.55;;
30635;SDS011;17400;52.392;9.750;2022-10-04T00:22:14;2.05;;;1.00;;
30635;SDS011;17400;52.392;9.750;2022-10-04T00:31:05;3.47;;;2.10;;
30635;SDS011;17400;52.392;9.750;2022-10-04T00:33:36;4.82;;;1.83;;
30635;SDS011;17400;52.392;9.750;2022-10-04T00:42:20;3.40;;;1.65;;
30635;SDS011;17400;52.392;9.750;2022-10-04T00:45:06;3.25;;;1.88;;
30635;SDS011;17400;52.392;9.750;2022-10-04T00:47:54;4.57;;;1.60;;
30635;SDS011;17400;52.392;9.750;2022-10-04T00:50:28;4.43;;;1.85;;
30635;SDS011;17400;52.392;9.750;2022-10-04T00:53:01;4.60;;;1.48;;
30635;SDS011;17400;52.392;9.750;2022-10-04T00:55:39;3.65;;;1.80;;
30635;SDS011;17400;52.392;9.750;2022-10-04T00:58:16;3.10;;;1.35;;
30635;SDS011;17400;52.392;9.750;2022-10-04T01:00:47;3.92;;;1.65;;
30635;SDS011;17400;52.392;9.750;2022-10-04T01:03:17;3.72;;;2.03;;
30635;SDS011;17400;52.392;9.750;2022-10-04T01:05:51;2.65;;;1.60;;
30635;SDS011;17400;52.392;9.750;2022-10-04T01:08:24;7.38;;;2.00;;
30635;SDS011;17400;52.392;9.750;2022-10-04T01:10:57;5.55;;;1.67;;
30635;SDS011;17400;52.392;9.750;2022-10-04T01:13:30;2.63;;;1.42;;
30635;SDS011;17400;52.392;9.750;2022-10-04T01:16:08;3.72;;;1.90;;
30635;SDS011;17400;52.392;9.750;2022-10-04T01:18:40;6.47;;;1.98;;
30635;SDS011;17400;52.392;9.750;2022-10-04T01:21:19;3.05;;;1.63;;
30635;SDS011;17400;52.392;9.750;2022-10-04T01:23:53;2.53;;;1.42;;
30635;SDS011;17400;52.392;9.750;2022-10-04T01:26:48;2.78;;;2.05;;
30635;SDS011;17400;52.392;9.750;2022-10-04T01:29:18;4.35;;;1.77;;
30635;SDS011;17400;52.392;9.750;2022-10-04T01:31:52;3.28;;;1.63;;
30635;SDS011;17400;52.392;9.750;2022-10-04T01:34:21;4.70;;;1.95;;
30635;SDS011;17400;52.392;9.750;2022-10-04T01:36:51;2.35;;;1.50;;
30635;SDS011;17400;52.392;9.750;2022-10-04T01:39:22;2.97;;;1.58;;
30635;SDS011;17400;52.392;9.750;2022-10-04T01:41:53;4.70;;;1.50;;
30635;SDS011;17400;52.392;9.750;2022-10-04T01:44:28;7.35;;;2.35;;
30635;SDS011;17400;52.392;9.750;2022-10-04T01:47:01;1.77;;;1.20;;
30635;SDS011;17400;52.392;9.750;2022-10-04T01:49:32;2.15;;;1.65;;
30635;SDS011;17400;52.392;9.750;2022-10-04T01:52:04;2.75;;;1.60;;
30635;SDS011;17400;52.392;9.750;2022-10-04T01:54:37;2.13;;;1.25;;
30635;SDS011;17400;52.392;9.750;2022-10-04T01:57:10;2.33;;;1.30;;
30635;SDS011;17400;52.392;9.750;2022-10-04T01:59:43;1.80;;;1.33;;
30635;SDS011;17400;52.392;9.750;2022-10-04T02:02:20;3.03;;;1.38;;
30635;SDS011;17400;52.392;9.750;2022-10-04T02:04:56;3.72;;;1.80;;
30635;SDS011;17400;52.392;9.750;2022-10-04T02:07:27;3.38;;;2.03;;
30635;SDS011;17400;52.392;9.750;2022-10-04T02:10:00;11.38;;;2.20;;
30635;SDS011;17400;52.392;9.750;2022-10-04T02:12:31;3.67;;;1.90;;
30635;SDS011;17400;52.392;9.750;2022-10-04T02:15:01;3.08;;;1.52;;
30635;SDS011;17400;52.392;9.750;2022-10-04T02:17:33;4.00;;;1.80;;
30635;SDS011;17400;52.392;9.750;2022-10-04T02:20:08;2.63;;;1.30;;
30635;SDS011;17400;52.392;9.750;2022-10-04T02:22:40;3.70;;;1.48;;
30635;SDS011;17400;52.392;9.750;2022-10-04T02:25:10;3.53;;;1.38;;
30635;SDS011;17400;52.392;9.750;2022-10-04T02:27:40;2.67;;;1.33;;
30635;SDS011;17400;52.392;9.750;2022-10-04T02:30:09;3.92;;;1.33;;
30635;SDS011;17400;52.392;9.750;2022-10-04T02:32:39;4.20;;;1.67;;
30635;SDS011;17400;52.392;9.750;2022-10-04T02:35:23;2.60;;;1.35;;
30635;SDS011;17400;52.392;9.750;2022-10-04T02:37:55;3.65;;;1.65;;
30635;SDS011;17400;52.392;9.750;2022-10-04T02:40:31;3.42;;;1.45;;
30635;SDS011;17400;52.392;9.750;2022-10-04T02:43:08;2.22;;;1.50;;
30635;SDS011;17400;52.392;9.750;2022-10-04T02:45:42;2.63;;;1.75;;
30635;SDS011;17400;52.392;9.750;2022-10-04T02:48:22;4.10;;;1.80;;
30635;SDS011;17400;52.392;9.750;2022-10-04T02:51:05;3.38;;;1.45;;
30635;SDS011;17400;52.392;9.750;2022-10-04T02:53:44;3.38;;;1.80;;
30635;SDS011;17400;52.392;9.750;2022-10-04T02:56:19;4.07;;;1.63;;
30635;SDS011;17400;52.392;9.750;2022-10-04T02:58:49;7.13;;;2.17;;
30635;SDS011;17400;52.392;9.750;2022-10-04T03:01:23;5.13;;;1.90;;
30635;SDS011;17400;52.392;9.750;2022-10-04T03:03:53;3.58;;;2.03;;
30635;SDS011;17400;52.392;9.750;2022-10-04T03:06:23;4.38;;;1.52;;
30635;SDS011;17400;52.392;9.750;2022-10-04T03:08:58;4.78;;;2.08;;
30635;SDS011;17400;52.392;9.750;2022-10-04T03:11:32;3.60;;;1.80;;
30635;SDS011;17400;52.392;9.750;2022-10-04T03:14:02;5.65;;;1.73;;
30635;SDS011;17400;52.392;9.750;2022-10-04T03:16:34;6.63;;;1.70;;
30635;SDS011;17400;52.392;9.750;2022-10-04T03:19:04;2.40;;;1.45;;
30635;SDS011;17400;52.392;9.750;2022-10-04T03:21:34;3.78;;;1.80;;
30635;SDS011;17400;52.392;9.750;2022-10-04T03:24:06;4.75;;;1.48;;
30635;SDS011;17400;52.392;9.750;2022-10-04T03:26:39;3.03;;;1.35;;
30635;SDS011;17400;52.392;9.750;2022-10-04T03:29:10;3.45;;;1.50;;
30635;SDS011;17400;52.392;9.750;2022-10-04T03:31:40;3.35;;;1.67;;
30635;SDS011;17400;52.392;9.750;2022-10-04T03:34:14;2.80;;;1.65;;
30635;SDS011;17400;52.392;9.750;2022-10-04T03:36:44;5.53;;;1.70;;
30635;SDS011;17400;52.392;9.750;2022-10-04T03:39:16;1.98;;;1.30;;
30635;SDS011;17400;52.392;9.750;2022-10-04T03:41:54;3.92;;;1.42;;
30635;SDS011;17400;52.392;9.750;2022-10-04T03:44:23;3.08;;;1.45;;
30635;SDS011;17400;52.392;9.750;2022-10-04T03:46:52;4.10;;;1.33;;
30635;SDS011;17400;52.392;9.750;2022-10-04T03:49:22;9.73;;;1.83;;
30635;SDS011;17400;52.392;9.750;2022-10-04T03:51:56;6.43;;;1.55;;
30635;SDS011;17400;52.392;9.750;2022-10-04T03:54:25;4.30;;;2.15;;
30635;SDS011;17400;52.392;9.750;2022-10-04T03:56:56;3.40;;;1.60;;
30635;SDS011;17400;52.392;9.750;2022-10-04T03:59:25;3.38;;;1.25;;
30635;SDS011;17400;52.392;9.750;2022-10-04T04:02:00;2.70;;;1.38;;
30635;SDS011;17400;52.392;9.750;2022-10-04T04:04:35;5.03;;;1.90;;
30635;SDS011;17400;52.392;9.750;2022-10-04T04:07:10;5.63;;;1.58;;
30635;SDS011;17400;52.392;9.750;2022-10-04T04:09:43;4.50;;;1.85;;
30635;SDS011;17400;52.392;9.750;2022-10-04T04:12:19;4.20;;;1.70;;
30635;SDS011;17400;52.392;9.750;2022-10-04T04:14:52;4.65;;;1.58;;
30635;SDS011;17400;52.392;9.750;2022-10-04T04:20:17;6.03;;;1.58;;
30635;SDS011;17400;52.392;9.750;2022-10-04T04:22:53;4.20;;;1.23;;
30635;SDS011;17400;52.392;9.750;2022-10-04T04:25:24;7.38;;;2.00;;
30635;SDS011;17400;52.392;9.750;2022-10-04T04:28:00;3.03;;;2.22;;
30635;SDS011;17400;52.392;9.750;2022-10-04T04:30:32;8.38;;;2.40;;
30635;SDS011;17400;52.392;9.750;2022-10-04T04:33:06;3.40;;;1.80;;
30635;SDS011;17400;52.392;9.750;2022-10-04T04:35:44;4.90;;;1.48;;
30635;SDS011;17400;52.392;9.750;2022-10-04T04:38:13;3.08;;;1.65;;
30635;SDS011;17400;52.392;9.750;2022-10-04T04:41:06;2.63;;;1.40;;
30635;SDS011;17400;52.392;9.750;2022-10-04T04:43:41;3.13;;;1.55;;
30635;SDS011;17400;52.392;9.750;2022-10-04T04:46:09;4.53;;;1.70;;
30635;SDS011;17400;52.392;9.750;2022-10-04T04:48:54;7.05;;;1.67;;
30635;SDS011;17400;52.392;9.750;2022-10-04T04:51:26;5.60;;;1.83;;
30635;SDS011;17400;52.392;9.750;2022-10-04T04:53:55;3.90;;;1.77;;
30635;SDS011;17400;52.392;9.750;2022-10-04T04:56:24;3.75;;;1.55;;
30635;SDS011;17400;52.392;9.750;2022-10-04T04:58:56;3.22;;;1.70;;
30635;SDS011;17400;52.392;9.750;2022-10-04T05:01:28;3.70;;;2.05;;
30635;SDS011;17400;52.392;9.750;2022-10-04T05:04:01;5.30;;;1.85;;
30635;SDS011;17400;52.392;9.750;2022-10-04T05:06:30;2.38;;;1.40;;
30635;SDS011;17400;52.392;9.750;2022-10-04T05:09:00;5.88;;;1.88;;
30635;SDS011;17400;52.392;9.750;2022-10-04T05:11:30;4.53;;;2.30;;
30635;SDS011;17400;52.392;9.750;2022-10-04T05:14:03;6.05;;;2.47;;
30635;SDS011;17400;52.392;9.750;2022-10-04T05:16:35;5.30;;;2.50;;
30635;SDS011;17400;52.392;9.750;2022-10-04T05:19:08;4.60;;;2.53;;
30635;SDS011;17400;52.392;9.750;2022-10-04T05:21:42;4.18;;;2.30;;
30635;SDS011;17400;52.392;9.750;2022-10-04T05:24:16;4.90;;;1.95;;
30635;SDS011;17400;52.392;9.750;2022-10-04T05:26:48;4.45;;;1.90;;
30635;SDS011;17400;52.392;9.750;2022-10-04T05:29:20;5.47;;;2.22;;
30635;SDS011;17400;52.392;9.750;2022-10-04T05:31:54;3.45;;;1.85;;
30635;SDS011;17400;52.392;9.750;2022-10-04T05:34:30;6.45;;;2.08;;
30635;SDS011;17400;52.392;9.750;2022-10-04T05:37:11;7.13;;;2.28;;
30635;SDS011;17400;52.392;9.750;2022-10-04T05:39:49;5.43;;;2.25;;
30635;SDS011;17400;52.392;9.750;2022-10-04T05:42:32;5.25;;;2.13;;
30635;SDS011;17400;52.392;9.750;2022-10-04T05:45:12;3.65;;;2.28;;
30635;SDS011;17400;52.392;9.750;2022-10-04T05:47:44;4.03;;;1.83;;
30635;SDS011;17400;52.392;9.750;2022-10-04T05:50:15;6.05;;;2.28;;
30635;SDS011;17400;52.392;9.750;2022-10-04T05:52:46;7.68;;;2.58;;
30635;SDS011;17400;52.392;9.750;2022-10-04T05:55:24;5.43;;;2.35;;
30635;SDS011;17400;52.392;9.750;2022-10-04T05:58:01;4.15;;;2.38;;
30635;SDS011;17400;52.392;9.750;2022-10-04T06:00:49;7.45;;;2.60;;
30635;SDS011;17400;52.392;9.750;2022-10-04T06:03:36;5.60;;;2.25;;
30635;SDS011;17400;52.392;9.750;2022-10-04T06:06:16;3.22;;;1.90;;
30635;SDS011;17400;52.392;9.750;2022-10-04T06:08:50;4.70;;;2.38;;
30635;SDS011;17400;52.392;9.750;2022-10-04T06:11:41;5.57;;;2.35;;
30635;SDS011;17400;52.392;9.750;2022-10-04T06:14:33;5.43;;;2.35;;
30635;SDS011;17400;52.392;9.750;2022-10-04T06:17:21;6.07;;;2.03;;
30635;SDS011;17400;52.392;9.750;2022-10-04T06:20:17;9.43;;;3.85;;
30635;SDS011;17400;52.392;9.750;2022-10-04T06:22:56;9.93;;;2.38;;
30635;SDS011;17400;52.392;9.750;2022-10-04T06:25:28;4.82;;;2.13;;
30635;SDS011;17400;52.392;9.750;2022-10-04T06:28:01;5.10;;;2.28;;
30635;SDS011;17400;52.392;9.750;2022-10-04T06:30:39;7.97;;;2.80;;
30635;SDS011;17400;52.392;9.750;2022-10-04T06:33:27;5.80;;;2.08;;
30635;SDS011;17400;52.392;9.750;2022-10-04T06:36:21;5.88;;;2.38;;
30635;SDS011;17400;52.392;9.750;2022-10-04T06:39:17;3.47;;;1.92;;
30635;SDS011;17400;52.392;9.750;2022-10-04T06:42:05;8.07;;;2.47;;
30635;SDS011;17400;52.392;9.750;2022-10-04T06:44:43;6.78;;;2.30;;
30635;SDS011;17400;52.392;9.750;2022-10-04T06:47:25;2.58;;;1.85;;
30635;SDS011;17400;52.392;9.750;2022-10-04T06:50:14;5.10;;;2.80;;
30635;SDS011;17400;52.392;9.750;2022-10-04T06:52:55;4.82;;;2.28;;
30635;SDS011;17400;52.392;9.750;2022-10-04T06:55:35;6.28;;;2.53;;
30635;SDS011;17400;52.392;9.750;2022-10-04T06:58:37;5.07;;;2.92;;
30635;SDS011;17400;52.392;9.750;2022-10-04T07:01:30;5.65;;;2.60;;
30635;SDS011;17400;52.392;9.750;2022-10-04T07:04:01;5.57;;;2.70;;
30635;SDS011;17400;52.392;9.750;2022-10-04T07:06:39;6.20;;;3.00;;
30635;SDS011;17400;52.392;9.750;2022-10-04T07:09:14;5.05;;;1.67;;
30635;SDS011;17400;52.392;9.750;2022-10-04T07:11:48;11.07;;;4.13;;
30635;SDS011;17400;52.392;9.750;2022-10-04T07:14:21;19.40;;;6.50;;
30635;SDS011;17400;52.392;9.750;2022-10-04T07:16:56;10.23;;;3.88;;
30635;SDS011;17400;52.392;9.750;2022-10-04T07:19:32;7.57;;;3.42;;
30635;SDS011;17400;52.392;9.750;2022-10-04T07:22:11;8.73;;;2.67;;
30635;SDS011;17400;52.392;9.750;2022-10-04T07:24:45;3.55;;;2.13;;
30635;SDS011;17400;52.392;9.750;2022-10-04T07:27:23;8.00;;;2.13;;
30635;SDS011;17400;52.392;9.750;2022-10-04T07:29:57;5.63;;;2.72;;
30635;SDS011;17400;52.392;9.750;2022-10-04T07:32:26;4.25;;;2.38;;
30635;SDS011;17400;52.392;9.750;2022-10-04T07:35:14;4.15;;;2.67;;
30635;SDS011;17400;52.392;9.750;2022-10-04T07:37:49;5.90;;;2.08;;
30635;SDS011;17400;52.392;9.750;2022-10-04T07:40:24;7.03;;;2.20;;
30635;SDS011;17400;52.392;9.750;2022-10-04T07:42:57;5.53;;;2.65;;
30635;SDS011;17400;52.392;9.750;2022-10-04T07:45:30;6.40;;;3.10;;
30635;SDS011;17400;52.392;9.750;2022-10-04T07:48:01;5.25;;;2.53;;
30635;SDS011;17400;52.392;9.750;2022-10-04T07:50:32;7.30;;;2.40;;
30635;SDS011;17400;52.392;9.750;2022-10-04T07:53:07;6.43;;;2.83;;
30635;SDS011;17400;52.392;9.750;2022-10-04T07:55:41;7.88;;;2.47;;
30635;SDS011;17400;52.392;9.750;2022-10-04T07:58:25;7.88;;;3.08;;
30635;SDS011;17400;52.392;9.750;2022-10-04T08:01:14;3.22;;;2.25;;
30635;SDS011;17400;52.392;9.750;2022-10-04T08:04:01;4.60;;;2.85;;
30635;SDS011;17400;52.392;9.750;2022-10-04T08:06:52;3.47;;;2.28;;
30635;SDS011;17400;52.392;9.750;2022-10-04T08:09:26;5.95;;;2.70;;
30635;SDS011;17400;52.392;9.750;2022-10-04T08:12:02;4.85;;;2.22;;
30635;SDS011;17400;52.392;9.750;2022-10-04T08:14:45;3.67;;;2.40;;
30635;SDS011;17400;52.392;9.750;2022-10-04T08:17:22;3.65;;;1.98;;
30635;SDS011;17400;52.392;9.750;2022-10-04T08:20:02;4.43;;;2.63;;
30635;SDS011;17400;52.392;9.750;2022-10-04T08:22:50;11.32;;;4.38;;
30635;SDS011;17400;52.392;9.750;2022-10-04T08:25:27;4.63;;;2.35;;
30635;SDS011;17400;52.392;9.750;2022-10-04T08:28:08;9.32;;;3.05;;
30635;SDS011;17400;52.392;9.750;2022-10-04T08:31:07;5.22;;;3.25;;
30635;SDS011;17400;52.392;9.750;2022-10-04T08:33:46;6.38;;;2.90;;
30635;SDS011;17400;52.392;9.750;2022-10-04T08:36:26;4.20;;;2.33;;
30635;SDS011;17400;52.392;9.750;2022-10-04T08:39:08;8.95;;;3.72;;
30635;SDS011;17400;52.392;9.750;2022-10-04T08:48:08;4.15;;;2.60;;
30635;SDS011;17400;52.392;9.750;2022-10-04T08:51:04;6.90;;;2.53;;
30635;SDS011;17400;52.392;9.750;2022-10-04T08:54:07;4.70;;;3.15;;
30635;SDS011;17400;52.392;9.750;2022-10-04T08:56:50;7.85;;;2.53;;
30635;SDS011;17400;52.392;9.750;2022-10-04T08:59:46;4.40;;;2.83;;
30635;SDS011;17400;52.392;9.750;2022-10-04T09:02:32;9.02;;;2.90;;
30635;SDS011;17400;52.392;9.750;2022-10-04T09:05:20;4.40;;;2.40;;
30635;SDS011;17400;52.392;9.750;2022-10-04T09:08:16;4.22;;;2.10;;
30635;SDS011;17400;52.392;9.750;2022-10-04T09:14:16;4.18;;;2.78;;
30635;SDS011;17400;52.392;9.750;2022-10-04T09:16:58;4.82;;;2.55;;
30635;SDS011;17400;52.392;9.750;2022-10-04T09:19:52;5.88;;;2.70;;
30635;SDS011;17400;52.392;9.750;2022-10-04T09:22:44;4.68;;;3.08;;
30635;SDS011;17400;52.392;9.750;2022-10-04T09:25:24;7.10;;;2.95;;
30635;SDS011;17400;52.392;9.750;2022-10-04T09:28:16;2.85;;;2.10;;
30635;SDS011;17400;52.392;9.750;2022-10-04T09:31:09;6.70;;;2.20;;
30635;SDS011;17400;52.392;9.750;2022-10-04T09:33:58;4.95;;;2.17;;
30635;SDS011;17400;52.392;9.750;2022-10-04T09:36:50;6.30;;;2.38;;
30635;SDS011;17400;52.392;9.750;2022-10-04T09:39:45;17.00;;;3.45;;
30635;SDS011;17400;52.392;9.750;2022-10-04T09:42:30;5.75;;;2.75;;
30635;SDS011;17400;52.392;9.750;2022-10-04T09:45:14;6.20;;;2.88;;
30635;SDS011;17400;52.392;9.750;2022-10-04T09:47:56;4.55;;;2.45;;
30635;SDS011;17400;52.392;9.750;2022-10-04T09:53:49;6.40;;;2.47;;
30635;SDS011;17400;52.392;9.750;2022-10-04T09:59:36;4.63;;;2.58;;
30635;SDS011;17400;52.392;9.750;2022-10-04T10:05:27;6.28;;;2.13;;
30635;SDS011;17400;52.392;9.750;2022-10-04T10:08:07;5.03;;;2.90;;
30635;SDS011;17400;52.392;9.750;2022-10-04T10:10:46;4.03;;;1.92;;
30635;SDS011;17400;52.392;9.750;2022-10-04T10:14:02;5.57;;;2.70;;
30635;SDS011;17400;52.392;9.750;2022-10-04T10:16:51;8.07;;;2.80;;
30635;SDS011;17400;52.392;9.750;2022-10-04T10:19:38;4.07;;;2.90;;
30635;SDS011;17400;52.392;9.750;2022-10-04T10:22:26;4.70;;;2.90;;
30635;SDS011;17400;52.392;9.750;2022-10-04T10:25:09;4.28;;;2.03;;
30635;SDS011;17400;52.392;9.750;2022-10-04T10:30:58;3.97;;;1.83;;
30635;SDS011;17400;52.392;9.750;2022-10-04T10:33:45;5.38;;;1.88;;
30635;SDS011;17400;52.392;9.750;2022-10-04T10:36:38;3.80;;;2.10;;
30635;SDS011;17400;52.392;9.750;2022-10-04T10:42:15;6.30;;;2.85;;
30635;SDS011;17400;52.392;9.750;2022-10-04T10:45:02;3.28;;;2.45;;
30635;SDS011;17400;52.392;9.750;2022-10-04T10:47:43;5.18;;;2.35;;
30635;SDS011;17400;52.392;9.750;2022-10-04T10:53:37;3.15;;;1.88;;
30635;SDS011;17400;52.392;9.750;2022-10-04T10:56:41;3.13;;;1.80;;
30635;SDS011;17400;52.392;9.750;2022-10-04T10:59:30;5.15;;;2.03;;
30635;SDS011;17400;52.392;9.750;2022-10-04T11:02:35;3.72;;;1.95;;
30635;SDS011;17400;52.392;9.750;2022-10-04T11:05:42;2.78;;;1.75;;
30635;SDS011;17400;52.392;9.750;2022-10-04T11:08:35;3.80;;;2.10;;
30635;SDS011;17400;52.392;9.750;2022-10-04T11:11:29;5.68;;;1.98;;
30635;SDS011;17400;52.392;9.750;2022-10-04T11:14:25;3.80;;;2.00;;
30635;SDS011;17400;52.392;9.750;2022-10-04T11:17:13;3.63;;;1.70;;
30635;SDS011;17400;52.392;9.750;2022-10-04T11:23:12;3.17;;;2.55;;
30635;SDS011;17400;52.392;9.750;2022-10-04T11:29:06;6.13;;;2.65;;
30635;SDS011;17400;52.392;9.750;2022-10-04T11:35:21;2.85;;;2.17;;
30635;SDS011;17400;52.392;9.750;2022-10-04T11:38:14;3.17;;;2.00;;
30635;SDS011;17400;52.392;9.750;2022-10-04T11:41:03;3.72;;;1.52;;
30635;SDS011;17400;52.392;9.750;2022-10-04T11:43:47;7.60;;;2.55;;
30635;SDS011;17400;52.392;9.750;2022-10-04T11:46:34;2.17;;;1.73;;
30635;SDS011;17400;52.392;9.750;2022-10-04T11:49:19;4.25;;;2.75;;
30635;SDS011;17400;52.392;9.750;2022-10-04T11:52:21;5.63;;;2.88;;
30635;SDS011;17400;52.392;9.750;2022-10-04T11:55:19;2.95;;;2.05;;
30635;SDS011;17400;52.392;9.750;2022-10-04T11:58:06;3.88;;;2.17;;
30635;SDS011;17400;52.392;9.750;2022-10-04T12:00:49;7.30;;;2.45;;
30635;SDS011;17400;52.392;9.750;2022-10-04T12:03:50;4.65;;;2.17;;
30635;SDS011;17400;52.392;9.750;2022-10-04T12:06:41;4.57;;;2.05;;
30635;SDS011;17400;52.392;9.750;2022-10-04T12:09:23;6.18;;;2.47;;
30635;SDS011;17400;52.392;9.750;2022-10-04T12:15:18;2.95;;;1.95;;
30635;SDS011;17400;52.392;9.750;2022-10-04T12:18:09;3.30;;;1.90;;
30635;SDS011;17400;52.392;9.750;2022-10-04T12:20:58;4.60;;;2.50;;
30635;SDS011;17400;52.392;9.750;2022-10-04T12:26:44;4.68;;;1.85;;
30635;SDS011;17400;52.392;9.750;2022-10-04T12:29:33;2.47;;;1.35;;
30635;SDS011;17400;52.392;9.750;2022-10-04T12:32:12;4.05;;;2.08;;
30635;SDS011;17400;52.392;9.750;2022-10-04T12:34:44;2.67;;;1.80;;
30635;SDS011;17400;52.392;9.750;2022-10-04T12:37:19;3.55;;;1.90;;
30635;SDS011;17400;52.392;9.750;2022-10-04T12:40:11;4.03;;;2.20;;
30635;SDS011;17400;52.392;9.750;2022-10-04T12:42:50;3.35;;;1.67;;
30635;SDS011;17400;52.392;9.750;2022-10-04T12:45:30;4.15;;;1.80;;
30635;SDS011;17400;52.392;9.750;2022-10-04T12:48:14;5.50;;;2.10;;
30635;SDS011;17400;52.392;9.750;2022-10-04T12:50:52;4.85;;;2.10;;
30635;SDS011;17400;52.392;9.750;2022-10-04T12:53:32;5.28;;;2.03;;
30635;SDS011;17400;52.392;9.750;2022-10-04T12:56:16;2.50;;;1.42;;
30635;SDS011;17400;52.392;9.750;2022-10-04T12:59:01;2.97;;;1.50;;
30635;SDS011;17400;52.392;9.750;2022-10-04T13:01:40;4.22;;;1.95;;
30635;SDS011;17400;52.392;9.750;2022-10-04T13:04:22;5.45;;;2.03;;
30635;SDS011;17400;52.392;9.750;2022-10-04T13:07:03;3.50;;;1.50;;
30635;SDS011;17400;52.392;9.750;2022-10-04T13:09:43;2.67;;;1.35;;
30635;SDS011;17400;52.392;9.750;2022-10-04T13:12:55;5.45;;;1.90;;
30635;SDS011;17400;52.392;9.750;2022-10-04T13:15:41;4.25;;;2.00;;
30635;SDS011;17400;52.392;9.750;2022-10-04T13:18:39;5.75;;;2.03;;
30635;SDS011;17400;52.392;9.750;2022-10-04T13:21:15;5.00;;;1.90;;
30635;SDS011;17400;52.392;9.750;2022-10-04T13:23:53;4.45;;;1.92;;
30635;SDS011;17400;52.392;9.750;2022-10-04T13:26:32;5.03;;;1.92;;
30635;SDS011;17400;52.392;9.750;2022-10-04T13:29:14;3.55;;;2.05;;
30635;SDS011;17400;52.392;9.750;2022-10-04T13:31:50;3.00;;;1.98;;
30635;SDS011;17400;52.392;9.750;2022-10-04T13:34:25;4.80;;;2.10;;
30635;SDS011;17400;52.392;9.750;2022-10-04T13:37:07;5.88;;;1.90;;
30635;SDS011;17400;52.392;9.750;2022-10-04T13:39:52;3.83;;;2.15;;
30635;SDS011;17400;52.392;9.750;2022-10-04T13:42:53;9.10;;;2.38;;
30635;SDS011;17400;52.392;9.750;2022-10-04T13:45:35;4.10;;;1.85;;
30635;SDS011;17400;52.392;9.750;2022-10-04T13:48:21;2.58;;;1.55;;
30635;SDS011;17400;52.392;9.750;2022-10-04T13:50:58;2.88;;;1.88;;
30635;SDS011;17400;52.392;9.750;2022-10-04T13:53:37;3.13;;;1.95;;
30635;SDS011;17400;52.392;9.750;2022-10-04T13:56:43;3.38;;;1.90;;
30635;SDS011;17400;52.392;9.750;2022-10-04T13:59:21;4.43;;;2.13;;
30635;SDS011;17400;52.392;9.750;2022-10-04T14:02:07;3.35;;;2.28;;
30635;SDS011;17400;52.392;9.750;2022-10-04T14:04:55;5.55;;;2.22;;
30635;SDS011;17400;52.392;9.750;2022-10-04T14:08:19;4.05;;;1.60;;
30635;SDS011;17400;52.392;9.750;2022-10-04T14:11:14;7.45;;;2.30;;
30635;SDS011;17400;52.392;9.750;2022-10-04T14:14:07;3.90;;;2.05;;
30635;SDS011;17400;52.392;9.750;2022-10-04T14:16:57;2.90;;;2.00;;
30635;SDS011;17400;52.392;9.750;2022-10-04T14:19:47;3.20;;;2.05;;
30635;SDS011;17400;52.392;9.750;2022-10-04T14:25:41;2.53;;;1.75;;
30635;SDS011;17400;52.392;9.750;2022-10-04T14:31:19;4.63;;;1.85;;
30635;SDS011;17400;52.392;9.750;2022-10-04T14:34:17;4.43;;;1.98;;
30635;SDS011;17400;52.392;9.750;2022-10-04T14:37:06;3.97;;;2.50;;
30635;SDS011;17400;52.392;9.750;2022-10-04T14:40:04;5.55;;;2.17;;
30635;SDS011;17400;52.392;9.750;2022-10-04T14:42:49;5.68;;;3.03;;
30635;SDS011;17400;52.392;9.750;2022-10-04T14:45:42;5.20;;;2.42;;
30635;SDS011;17400;52.392;9.750;2022-10-04T14:51:28;4.43;;;2.78;;
30635;SDS011;17400;52.392;9.750;2022-10-04T14:54:07;6.53;;;3.83;;
30635;SDS011;17400;52.392;9.750;2022-10-04T14:56:41;3.67;;;1.77;;
30635;SDS011;17400;52.392;9.750;2022-10-04T14:59:24;4.75;;;2.30;;
30635;SDS011;17400;52.392;9.750;2022-10-04T15:02:12;5.47;;;2.08;;
30635;SDS011;17400;52.392;9.750;2022-10-04T15:05:11;2.20;;;1.73;;
30635;SDS011;17400;52.392;9.750;2022-10-04T15:08:10;6.03;;;2.65;;
30635;SDS011;17400;52.392;9.750;2022-10-04T15:10:50;4.20;;;2.08;;
30635;SDS011;17400;52.392;9.750;2022-10-04T15:13:22;3.13;;;1.88;;
30635;SDS011;17400;52.392;9.750;2022-10-04T15:15:59;4.22;;;2.47;;
30635;SDS011;17400;52.392;9.750;2022-10-04T15:18:47;3.40;;;2.08;;
30635;SDS011;17400;52.392;9.750;2022-10-04T15:21:26;3.10;;;2.03;;
30635;SDS011;17400;52.392;9.750;2022-10-04T15:24:18;4.32;;;2.03;;
30635;SDS011;17400;52.392;9.750;2022-10-04T15:26:53;3.72;;;2.15;;
30635;SDS011;17400;52.392;9.750;2022-10-04T15:30:00;7.55;;;1.95;;
30635;SDS011;17400;52.392;9.750;2022-10-04T15:32:39;3.70;;;1.75;;
30635;SDS011;17400;52.392;9.750;2022-10-04T15:35:18;3.50;;;1.73;;
30635;SDS011;17400;52.392;9.750;2022-10-04T15:37:55;3.13;;;2.22;;
30635;SDS011;17400;52.392;9.750;2022-10-04T15:40:30;4.25;;;2.28;;
30635;SDS011;17400;52.392;9.750;2022-10-04T15:43:17;3.42;;;1.77;;
30635;SDS011;17400;52.392;9.750;2022-10-04T15:45:53;3.83;;;1.88;;
30635;SDS011;17400;52.392;9.750;2022-10-04T15:48:32;6.88;;;2.03;;
30635;SDS011;17400;52.392;9.750;2022-10-04T15:51:16;4.68;;;1.63;;
30635;SDS011;17400;52.392;9.750;2022-10-04T15:54:30;3.83;;;1.60;;
30635;SDS011;17400;52.392;9.750;2022-10-04T15:57:31;6.25;;;1.92;;
30635;SDS011;17400;52.392;9.750;2022-10-04T16:00:09;4.07;;;2.40;;
30635;SDS011;17400;52.392;9.750;2022-10-04T16:02:45;4.82;;;1.60;;
30635;SDS011;17400;52.392;9.750;2022-10-04T16:05:36;3.70;;;1.98;;
30635;SDS011;17400;52.392;9.750;2022-10-04T16:11:05;4.00;;;1.85;;
30635;SDS011;17400;52.392;9.750;2022-10-04T16:13:45;4.25;;;1.98;;
30635;SDS011;17400;52.392;9.750;2022-10-04T16:16:33;4.18;;;2.40;;
30635;SDS011;17400;52.392;9.750;2022-10-04T16:19:19;4.82;;;2.35;;
30635;SDS011;17400;52.392;9.750;2022-10-04T16:22:07;4.93;;;3.13;;
30635;SDS011;17400;52.392;9.750;2022-10-04T16:24:40;7.00;;;3.65;;
30635;SDS011;17400;52.392;9.750;2022-10-04T16:30:17;5.50;;;3.47;;
30635;SDS011;17400;52.392;9.750;2022-10-04T16:36:06;6.25;;;2.65;;
30635;SDS011;17400;52.392;9.750;2022-10-04T16:38:42;4.07;;;2.70;;
30635;SDS011;17400;52.392;9.750;2022-10-04T16:41:34;4.65;;;2.72;;
30635;SDS011;17400;52.392;9.750;2022-10-04T16:44:20;4.40;;;2.90;;
30635;SDS011;17400;52.392;9.750;2022-10-04T16:46:57;5.10;;;2.65;;
30635;SDS011;17400;52.392;9.750;2022-10-04T16:49:30;6.93;;;2.47;;
30635;SDS011;17400;52.392;9.750;2022-10-04T16:52:18;2.80;;;2.08;;
30635;SDS011;17400;52.392;9.750;2022-10-04T16:55:21;6.10;;;3.22;;
30635;SDS011;17400;52.392;9.750;2022-10-04T17:04:30;7.85;;;3.30;;
30635;SDS011;17400;52.392;9.750;2022-10-04T17:07:12;6.05;;;2.88;;
30635;SDS011;17400;52.392;9.750;2022-10-04T17:09:51;6.65;;;3.42;;
30635;SDS011;17400;52.392;9.750;2022-10-04T17:12:28;7.90;;;4.50;;
30635;SDS011;17400;52.392;9.750;2022-10-04T17:15:07;9.35;;;5.45;;
30635;SDS011;17400;52.392;9.750;2022-10-04T17:17:55;7.43;;;3.90;;
30635;SDS011;17400;52.392;9.750;2022-10-04T17:20:42;7.63;;;3.60;;
30635;SDS011;17400;52.392;9.750;2022-10-04T17:23:20;6.35;;;3.75;;
30635;SDS011;17400;52.392;9.750;2022-10-04T17:26:02;6.70;;;4.00;;
30635;SDS011;17400;52.392;9.750;2022-10-04T17:28:42;10.27;;;4.05;;
30635;SDS011;17400;52.392;9.750;2022-10-04T17:31:20;9.23;;;4.90;;
30635;SDS011;17400;52.392;9.750;2022-10-04T17:33:58;11.25;;;6.20;;